Terminal Aerodrome Forecast
Issued by NWS

Home | Current Version | Previous Version | Text Only | Print | Product List | Glossary On
Versions: 1 2 3 4 5 6 7 8 9 10 11 12 13 14 15 16 17 18 19
000
FTUS44 KHGX 301140
TAFSGR
TAF
KSGR 301140Z 3012/3112 VRB03KT P6SM FEW015 SCT250
     FM301500 17005KT P6SM SCT025 BKN150
     FM301800 14007KT P6SM SCT040 BKN150
     FM302100 15012KT P6SM VCTS BKN040CB
     FM310100 14005KT P6SM FEW025 SCT250
     FM310900 15002KT P6SM SCT015 SCT250
      TEMPO 3109/3112 6SM BR BKN015=

USA.gov is the U.S. government's official web portal to all federal, state and local government web resources and services.